sensor_id;sensor_type;location;lat;lon;timestamp;pressure;altitude;pressure_sealevel;temperature;humidity
80149;BME280;69473;42.426;26.644;2023-06-22T00:00:46;99188.91;;;20.68;61.48
80149;BME280;69473;42.426;26.644;2023-06-22T00:03:12;99189.03;;;20.65;61.81
80149;BME280;69473;42.426;26.644;2023-06-22T00:05:37;99196.16;;;20.63;61.87
80149;BME280;69473;42.426;26.644;2023-06-22T00:08:04;99202.19;;;20.65;61.83
80149;BME280;69473;42.426;26.644;2023-06-22T00:10:32;99208.25;;;20.67;62.07
80149;BME280;69473;42.426;26.644;2023-06-22T00:12:58;99197.97;;;20.61;61.23
80149;BME280;69473;42.426;26.644;2023-06-22T00:15:24;99206.84;;;20.58;61.35
80149;BME280;69473;42.426;26.644;2023-06-22T00:17:50;99199.19;;;20.52;61.96
80149;BME280;69473;42.426;26.644;2023-06-22T00:20:16;99210.47;;;20.56;61.68
80149;BME280;69473;42.426;26.644;2023-06-22T00:22:44;99208.75;;;20.55;61.60
80149;BME280;69473;42.426;26.644;2023-06-22T00:25:11;99215.84;;;20.52;61.60
80149;BME280;69473;42.426;26.644;2023-06-22T00:27:37;99219.41;;;20.51;61.21
80149;BME280;69473;42.426;26.644;2023-06-22T00:30:03;99222.00;;;20.53;61.16
80149;BME280;69473;42.426;26.644;2023-06-22T00:32:29;99219.28;;;20.55;60.58
80149;BME280;69473;42.426;26.644;2023-06-22T00:34:54;99219.16;;;20.58;60.68
80149;BME280;69473;42.426;26.644;2023-06-22T00:37:20;99221.47;;;20.65;60.78
80149;BME280;69473;42.426;26.644;2023-06-22T00:39:51;99213.91;;;20.58;60.72
80149;BME280;69473;42.426;26.644;2023-06-22T00:42:17;99225.25;;;20.60;61.03
80149;BME280;69473;42.426;26.644;2023-06-22T00:44:43;99219.03;;;20.61;60.95
80149;BME280;69473;42.426;26.644;2023-06-22T00:47:11;99223.81;;;20.73;60.67
80149;BME280;69473;42.426;26.644;2023-06-22T00:49:39;99214.34;;;20.69;61.41
80149;BME280;69473;42.426;26.644;2023-06-22T00:52:05;99219.88;;;20.83;61.16
80149;BME280;69473;42.426;26.644;2023-06-22T00:54:35;99221.63;;;20.84;61.14
80149;BME280;69473;42.426;26.644;2023-06-22T00:57:02;99226.88;;;20.84;60.79
80149;BME280;69473;42.426;26.644;2023-06-22T00:59:28;99218.97;;;20.84;61.47
80149;BME280;69473;42.426;26.644;2023-06-22T01:01:54;99219.75;;;20.86;61.59
80149;BME280;69473;42.426;26.644;2023-06-22T01:04:21;99214.34;;;20.89;62.00
80149;BME280;69473;42.426;26.644;2023-06-22T01:07:25;99216.47;;;20.59;63.41
80149;BME280;69473;42.426;26.644;2023-06-22T01:10:16;99215.72;;;20.77;62.75
80149;BME280;69473;42.426;26.644;2023-06-22T01:12:52;99213.03;;;20.79;62.61
80149;BME280;69473;42.426;26.644;2023-06-22T01:15:28;99200.16;;;20.93;62.34
80149;BME280;69473;42.426;26.644;2023-06-22T01:17:57;99208.13;;;20.70;63.36
80149;BME280;69473;42.426;26.644;2023-06-22T01:20:26;99208.25;;;20.67;63.87
80149;BME280;69473;42.426;26.644;2023-06-22T01:26:13;99202.75;;;20.73;64.04
80149;BME280;69473;42.426;26.644;2023-06-22T01:28:46;99198.22;;;20.76;64.01
80149;BME280;69473;42.426;26.644;2023-06-22T01:31:32;99194.72;;;20.96;63.09
80149;BME280;69473;42.426;26.644;2023-06-22T01:34:03;99204.03;;;21.05;62.99
80149;BME280;69473;42.426;26.644;2023-06-22T01:36:30;99201.22;;;21.10;62.91
80149;BME280;69473;42.426;26.644;2023-06-22T01:38:57;99204.44;;;21.16;62.87
80149;BME280;69473;42.426;26.644;2023-06-22T01:41:29;99202.78;;;21.14;63.59
80149;BME280;69473;42.426;26.644;2023-06-22T01:43:56;99190.69;;;21.10;62.47
80149;BME280;69473;42.426;26.644;2023-06-22T01:46:22;99204.50;;;21.15;62.68
80149;BME280;69473;42.426;26.644;2023-06-22T01:48:50;99209.38;;;21.24;62.08
80149;BME280;69473;42.426;26.644;2023-06-22T01:51:16;99202.31;;;21.47;59.95
80149;BME280;69473;42.426;26.644;2023-06-22T01:53:42;99200.97;;;21.57;59.44
80149;BME280;69473;42.426;26.644;2023-06-22T01:56:08;99193.25;;;21.52;59.08
80149;BME280;69473;42.426;26.644;2023-06-22T01:58:37;99181.72;;;21.55;59.56
80149;BME280;69473;42.426;26.644;2023-06-22T02:01:12;99196.09;;;21.48;60.16
80149;BME280;69473;42.426;26.644;2023-06-22T02:03:46;99200.97;;;21.57;59.39
80149;BME280;69473;42.426;26.644;2023-06-22T02:06:33;99199.84;;;21.62;59.06
80149;BME280;69473;42.426;26.644;2023-06-22T02:09:08;99196.84;;;21.70;58.20
80149;BME280;69473;42.426;26.644;2023-06-22T02:11:37;99193.53;;;21.65;58.68
80149;BME280;69473;42.426;26.644;2023-06-22T02:14:03;99195.41;;;21.63;58.59
80149;BME280;69473;42.426;26.644;2023-06-22T02:16:31;99188.59;;;21.59;59.28
80149;BME280;69473;42.426;26.644;2023-06-22T02:19:01;99195.81;;;21.54;60.39
80149;BME280;69473;42.426;26.644;2023-06-22T02:21:29;99198.44;;;21.33;61.57
80149;BME280;69473;42.426;26.644;2023-06-22T02:23:56;99199.91;;;21.20;62.23
80149;BME280;69473;42.426;26.644;2023-06-22T02:26:23;99202.41;;;21.23;62.62
80149;BME280;69473;42.426;26.644;2023-06-22T02:28:50;99203.84;;;21.30;62.22
80149;BME280;69473;42.426;26.644;2023-06-22T02:31:15;99193.91;;;21.37;61.18
80149;BME280;69473;42.426;26.644;2023-06-22T02:33:41;99204.81;;;21.50;61.14
80149;BME280;69473;42.426;26.644;2023-06-22T02:36:07;99210.06;;;21.50;61.07
80149;BME280;69473;42.426;26.644;2023-06-22T02:38:35;99211.06;;;21.47;60.61
80149;BME280;69473;42.426;26.644;2023-06-22T02:41:02;99213.88;;;21.42;61.30
80149;BME280;69473;42.426;26.644;2023-06-22T02:43:27;99215.81;;;21.39;60.29
80149;BME280;69473;42.426;26.644;2023-06-22T02:45:53;99225.50;;;21.38;61.58
80149;BME280;69473;42.426;26.644;2023-06-22T02:48:19;99220.03;;;21.21;61.82
80149;BME280;69473;42.426;26.644;2023-06-22T02:50:44;99226.09;;;21.03;62.83
80149;BME280;69473;42.426;26.644;2023-06-22T02:53:10;99228.19;;;20.94;63.03
80149;BME280;69473;42.426;26.644;2023-06-22T02:55:35;99238.13;;;20.88;63.69
80149;BME280;69473;42.426;26.644;2023-06-22T02:58:01;99243.75;;;21.01;63.76
80149;BME280;69473;42.426;26.644;2023-06-22T03:00:30;99242.25;;;21.15;63.22
80149;BME280;69473;42.426;26.644;2023-06-22T03:02:56;99248.19;;;21.20;63.40
80149;BME280;69473;42.426;26.644;2023-06-22T03:05:23;99236.44;;;21.28;62.73
80149;BME280;69473;42.426;26.644;2023-06-22T03:07:49;99240.38;;;21.39;63.00
80149;BME280;69473;42.426;26.644;2023-06-22T03:10:15;99236.38;;;21.09;62.55
80149;BME280;69473;42.426;26.644;2023-06-22T03:12:42;99240.06;;;21.05;63.58
80149;BME280;69473;42.426;26.644;2023-06-22T03:15:10;99244.13;;;20.91;63.69
80149;BME280;69473;42.426;26.644;2023-06-22T03:17:37;99242.69;;;21.05;63.61
80149;BME280;69473;42.426;26.644;2023-06-22T03:20:05;99245.50;;;21.22;62.87
80149;BME280;69473;42.426;26.644;2023-06-22T03:22:43;99248.81;;;21.05;63.28
80149;BME280;69473;42.426;26.644;2023-06-22T03:25:09;99243.13;;;21.16;62.76
80149;BME280;69473;42.426;26.644;2023-06-22T03:27:36;99257.47;;;21.29;62.86
80149;BME280;69473;42.426;26.644;2023-06-22T03:30:02;99251.38;;;21.49;62.25
80149;BME280;69473;42.426;26.644;2023-06-22T03:32:28;99257.13;;;21.59;62.51
80149;BME280;69473;42.426;26.644;2023-06-22T03:34:54;99259.72;;;21.79;61.80
80149;BME280;69473;42.426;26.644;2023-06-22T03:37:19;99257.06;;;22.00;61.20
80149;BME280;69473;42.426;26.644;2023-06-22T03:39:45;99265.19;;;22.14;60.65
80149;BME280;69473;42.426;26.644;2023-06-22T03:42:10;99259.63;;;22.01;61.05
80149;BME280;69473;42.426;26.644;2023-06-22T03:44:36;99249.78;;;22.05;60.88
80149;BME280;69473;42.426;26.644;2023-06-22T03:47:03;99262.13;;;22.04;61.11
80149;BME280;69473;42.426;26.644;2023-06-22T03:49:29;99258.50;;;22.07;61.31
80149;BME280;69473;42.426;26.644;2023-06-22T03:51:55;99263.38;;;22.16;61.28
80149;BME280;69473;42.426;26.644;2023-06-22T03:54:20;99264.22;;;21.96;61.75
80149;BME280;69473;42.426;26.644;2023-06-22T03:56:46;99271.41;;;22.13;62.98
80149;BME280;69473;42.426;26.644;2023-06-22T03:59:11;99276.72;;;21.92;62.87
80149;BME280;69473;42.426;26.644;2023-06-22T04:01:37;99280.81;;;21.79;63.87
80149;BME280;69473;42.426;26.644;2023-06-22T04:04:02;99279.84;;;21.41;64.47
80149;BME280;69473;42.426;26.644;2023-06-22T04:06:28;99270.84;;;21.47;64.49
80149;BME280;69473;42.426;26.644;2023-06-22T04:08:53;99270.69;;;21.70;64.66
80149;BME280;69473;42.426;26.644;2023-06-22T04:11:19;99266.84;;;21.77;63.41
80149;BME280;69473;42.426;26.644;2023-06-22T04:13:45;99270.13;;;21.82;63.76
80149;BME280;69473;42.426;26.644;2023-06-22T04:16:10;99269.72;;;21.91;62.70
80149;BME280;69473;42.426;26.644;2023-06-22T04:18:36;99271.16;;;21.99;63.08
80149;BME280;69473;42.426;26.644;2023-06-22T04:21:02;99272.25;;;21.74;63.45
80149;BME280;69473;42.426;26.644;2023-06-22T04:23:28;99278.84;;;21.84;63.20
80149;BME280;69473;42.426;26.644;2023-06-22T04:25:53;99280.56;;;21.85;63.31
80149;BME280;69473;42.426;26.644;2023-06-22T04:28:21;99281.38;;;21.67;64.79
80149;BME280;69473;42.426;26.644;2023-06-22T04:30:47;99283.16;;;21.87;63.17
80149;BME280;69473;42.426;26.644;2023-06-22T04:33:16;99281.84;;;21.96;63.09
80149;BME280;69473;42.426;26.644;2023-06-22T04:35:45;99270.75;;;22.08;62.44
80149;BME280;69473;42.426;26.644;2023-06-22T04:38:12;99275.50;;;22.20;62.19
80149;BME280;69473;42.426;26.644;2023-06-22T04:40:41;99275.22;;;22.26;62.16
80149;BME280;69473;42.426;26.644;2023-06-22T04:43:07;99278.13;;;22.20;63.09
80149;BME280;69473;42.426;26.644;2023-06-22T04:45:35;99286.34;;;22.52;62.08
80149;BME280;69473;42.426;26.644;2023-06-22T04:48:04;99280.63;;;22.42;60.98
80149;BME280;69473;42.426;26.644;2023-06-22T04:50:30;99291.06;;;23.37;59.07
80149;BME280;69473;42.426;26.644;2023-06-22T04:52:55;99290.09;;;23.20;60.05
80149;BME280;69473;42.426;26.644;2023-06-22T04:55:21;99299.31;;;23.31;59.11
80149;BME280;69473;42.426;26.644;2023-06-22T04:57:48;99298.69;;;23.78;58.10
80149;BME280;69473;42.426;26.644;2023-06-22T05:00:20;99297.34;;;24.19;57.95
80149;BME280;69473;42.426;26.644;2023-06-22T05:02:49;99306.06;;;24.22;57.34
80149;BME280;69473;42.426;26.644;2023-06-22T05:05:15;99303.59;;;24.68;56.79
80149;BME280;69473;42.426;26.644;2023-06-22T05:07:47;99308.00;;;24.51;56.78
80149;BME280;69473;42.426;26.644;2023-06-22T05:10:16;99304.94;;;24.75;56.29
80149;BME280;69473;42.426;26.644;2023-06-22T05:12:42;99301.69;;;24.70;56.23
80149;BME280;69473;42.426;26.644;2023-06-22T05:15:08;99299.47;;;24.78;56.05
80149;BME280;69473;42.426;26.644;2023-06-22T05:17:35;99296.00;;;24.28;56.74
80149;BME280;69473;42.426;26.644;2023-06-22T05:20:01;99301.34;;;24.27;56.82
80149;BME280;69473;42.426;26.644;2023-06-22T05:22:27;99309.38;;;24.58;56.65
80149;BME280;69473;42.426;26.644;2023-06-22T05:24:53;99302.69;;;24.51;55.98
80149;BME280;69473;42.426;26.644;2023-06-22T05:27:18;99306.13;;;24.85;55.99
80149;BME280;69473;42.426;26.644;2023-06-22T05:29:44;99307.22;;;25.13;55.24
80149;BME280;69473;42.426;26.644;2023-06-22T05:32:10;99314.06;;;25.17;55.78
80149;BME280;69473;42.426;26.644;2023-06-22T05:34:35;99315.41;;;25.54;54.85
80149;BME280;69473;42.426;26.644;2023-06-22T05:37:02;99314.97;;;25.76;52.60
80149;BME280;69473;42.426;26.644;2023-06-22T05:39:28;99317.63;;;25.62;52.47
80149;BME280;69473;42.426;26.644;2023-06-22T05:41:54;99316.84;;;25.90;51.80
80149;BME280;69473;42.426;26.644;2023-06-22T05:44:19;99299.31;;;26.30;49.16
80149;BME280;69473;42.426;26.644;2023-06-22T05:46:45;99312.56;;;26.73;49.26
80149;BME280;69473;42.426;26.644;2023-06-22T05:49:14;99311.31;;;27.20;46.17
80149;BME280;69473;42.426;26.644;2023-06-22T05:51:41;99303.91;;;27.51;44.35
80149;BME280;69473;42.426;26.644;2023-06-22T05:54:06;99303.06;;;27.63;43.72
80149;BME280;69473;42.426;26.644;2023-06-22T05:56:33;99303.13;;;27.89;43.82
80149;BME280;69473;42.426;26.644;2023-06-22T05:58:59;99302.69;;;28.07;44.67
80149;BME280;69473;42.426;26.644;2023-06-22T06:01:24;99297.56;;;28.17;42.29
80149;BME280;69473;42.426;26.644;2023-06-22T06:03:51;99290.94;;;28.36;42.39
80149;BME280;69473;42.426;26.644;2023-06-22T06:06:19;99300.53;;;28.51;41.11
80149;BME280;69473;42.426;26.644;2023-06-22T06:08:54;99300.81;;;28.59;40.09
80149;BME280;69473;42.426;26.644;2023-06-22T06:11:20;99309.19;;;28.78;39.68
80149;BME280;69473;42.426;26.644;2023-06-22T06:13:45;99300.41;;;28.89;38.92
80149;BME280;69473;42.426;26.644;2023-06-22T06:16:11;99306.34;;;28.93;38.83
80149;BME280;69473;42.426;26.644;2023-06-22T06:18:36;99307.47;;;29.14;39.17
80149;BME280;69473;42.426;26.644;2023-06-22T06:21:02;99303.50;;;29.20;38.84
80149;BME280;69473;42.426;26.644;2023-06-22T06:23:28;99310.06;;;29.62;37.45
80149;BME280;69473;42.426;26.644;2023-06-22T06:25:54;99309.44;;;29.94;36.63
80149;BME280;69473;42.426;26.644;2023-06-22T06:28:19;99303.38;;;30.03;35.27
80149;BME280;69473;42.426;26.644;2023-06-22T06:30:45;99297.50;;;30.77;34.86
80149;BME280;69473;42.426;26.644;2023-06-22T06:33:12;99296.16;;;31.26;33.54
80149;BME280;69473;42.426;26.644;2023-06-22T06:35:38;99298.84;;;31.68;32.05
80149;BME280;69473;42.426;26.644;2023-06-22T06:38:03;99298.31;;;32.16;31.46
80149;BME280;69473;42.426;26.644;2023-06-22T06:40:29;99306.66;;;32.23;31.46
80149;BME280;69473;42.426;26.644;2023-06-22T06:42:55;99300.56;;;31.69;32.16
80149;BME280;69473;42.426;26.644;2023-06-22T06:45:22;99295.97;;;32.02;32.12
80149;BME280;69473;42.426;26.644;2023-06-22T06:47:49;99302.78;;;31.11;33.63
80149;BME280;69473;42.426;26.644;2023-06-22T06:50:16;99295.53;;;32.58;31.25
80149;BME280;69473;42.426;26.644;2023-06-22T06:52:42;99293.50;;;33.39;29.80
80149;BME280;69473;42.426;26.644;2023-06-22T06:55:09;99299.72;;;33.69;29.43
80149;BME280;69473;42.426;26.644;2023-06-22T06:57:39;99284.34;;;34.08;29.10
80149;BME280;69473;42.426;26.644;2023-06-22T07:00:07;99284.88;;;34.21;28.11
80149;BME280;69473;42.426;26.644;2023-06-22T07:02:38;99285.19;;;34.18;27.48
80149;BME280;69473;42.426;26.644;2023-06-22T07:05:05;99280.47;;;33.73;28.96
80149;BME280;69473;42.426;26.644;2023-06-22T07:07:31;99275.50;;;34.81;27.63
80149;BME280;69473;42.426;26.644;2023-06-22T07:09:57;99266.47;;;35.17;26.76
80149;BME280;69473;42.426;26.644;2023-06-22T07:12:22;99270.03;;;35.44;26.19
80149;BME280;69473;42.426;26.644;2023-06-22T07:14:48;99276.19;;;35.54;25.97
80149;BME280;69473;42.426;26.644;2023-06-22T07:17:15;99276.09;;;33.72;27.08
80149;BME280;69473;42.426;26.644;2023-06-22T07:19:41;99265.47;;;32.83;27.83
80149;BME280;69473;42.426;26.644;2023-06-22T07:22:07;99271.34;;;34.68;25.39
80149;BME280;69473;42.426;26.644;2023-06-22T07:24:33;99270.06;;;33.98;27.01
80149;BME280;69473;42.426;26.644;2023-06-22T07:26:59;99277.38;;;33.68;27.45
80149;BME280;69473;42.426;26.644;2023-06-22T07:29:24;99271.78;;;32.43;29.30
80149;BME280;69473;42.426;26.644;2023-06-22T07:31:52;99279.72;;;31.51;30.27
80149;BME280;69473;42.426;26.644;2023-06-22T07:34:18;99281.00;;;30.60;31.53
80149;BME280;69473;42.426;26.644;2023-06-22T07:36:44;99292.13;;;30.22;32.67
80149;BME280;69473;42.426;26.644;2023-06-22T07:39:11;99281.03;;;30.38;33.05
80149;BME280;69473;42.426;26.644;2023-06-22T07:41:39;99273.72;;;30.18;32.80
80149;BME280;69473;42.426;26.644;2023-06-22T07:44:04;99275.41;;;30.19;33.15
80149;BME280;69473;42.426;26.644;2023-06-22T07:46:31;99282.91;;;29.68;34.19
80149;BME280;69473;42.426;26.644;2023-06-22T07:48:57;99277.25;;;29.49;34.12
80149;BME280;69473;42.426;26.644;2023-06-22T07:51:23;99269.34;;;30.05;34.22
80149;BME280;69473;42.426;26.644;2023-06-22T07:53:49;99264.75;;;30.41;32.96
80149;BME280;69473;42.426;26.644;2023-06-22T07:56:14;99270.56;;;30.57;33.02
80149;BME280;69473;42.426;26.644;2023-06-22T07:58:45;99264.50;;;30.44;32.69
80149;BME280;69473;42.426;26.644;2023-06-22T08:01:11;99275.34;;;29.51;33.96
80149;BME280;69473;42.426;26.644;2023-06-22T08:03:37;99269.22;;;29.96;33.90
80149;BME280;69473;42.426;26.644;2023-06-22T08:06:03;99267.31;;;30.20;33.68
80149;BME280;69473;42.426;26.644;2023-06-22T08:08:28;99270.16;;;29.26;33.78
80149;BME280;69473;42.426;26.644;2023-06-22T08:10:54;99262.66;;;29.66;33.31
80149;BME280;69473;42.426;26.644;2023-06-22T08:13:20;99266.91;;;29.33;34.14
80149;BME280;69473;42.426;26.644;2023-06-22T08:15:45;99265.44;;;29.87;33.50
80149;BME280;69473;42.426;26.644;2023-06-22T08:18:11;99258.66;;;30.17;33.50
80149;BME280;69473;42.426;26.644;2023-06-22T08:20:36;99265.47;;;30.54;32.88
80149;BME280;69473;42.426;26.644;2023-06-22T08:23:02;99260.59;;;30.48;32.18
80149;BME280;69473;42.426;26.644;2023-06-22T08:25:35;99252.59;;;30.37;32.03
80149;BME280;69473;42.426;26.644;2023-06-22T08:28:02;99257.47;;;30.21;32.48
80149;BME280;69473;42.426;26.644;2023-06-22T08:30:27;99245.81;;;30.33;32.36
80149;BME280;69473;42.426;26.644;2023-06-22T08:32:53;99262.06;;;30.19;32.45
80149;BME280;69473;42.426;26.644;2023-06-22T08:35:20;99263.03;;;30.63;31.51
80149;BME280;69473;42.426;26.644;2023-06-22T08:37:45;99271.31;;;31.03;31.69
80149;BME280;69473;42.426;26.644;2023-06-22T08:40:19;99270.19;;;31.05;32.82
80149;BME280;69473;42.426;26.644;2023-06-22T08:42:46;99271.06;;;31.38;31.46
80149;BME280;69473;42.426;26.644;2023-06-22T08:45:12;99270.28;;;31.47;31.12
80149;BME280;69473;42.426;26.644;2023-06-22T08:47:38;99269.34;;;31.58;31.04
80149;BME280;69473;42.426;26.644;2023-06-22T08:50:05;99266.72;;;31.68;31.74
80149;BME280;69473;42.426;26.644;2023-06-22T08:52:32;99261.81;;;31.73;30.95
80149;BME280;69473;42.426;26.644;2023-06-22T08:54:57;99259.06;;;31.84;31.01
80149;BME280;69473;42.426;26.644;2023-06-22T08:57:27;99257.22;;;32.06;30.93
80149;BME280;69473;42.426;26.644;2023-06-22T08:59:52;99259.84;;;32.36;32.41
80149;BME280;69473;42.426;26.644;2023-06-22T09:02:19;99258.69;;;32.60;30.29
80149;BME280;69473;42.426;26.644;2023-06-22T09:04:46;99264.91;;;32.60;30.16
80149;BME280;69473;42.426;26.644;2023-06-22T09:07:11;99252.34;;;32.30;31.01
80149;BME280;69473;42.426;26.644;2023-06-22T09:09:37;99256.72;;;32.62;29.47
80149;BME280;69473;42.426;26.644;2023-06-22T09:12:02;99254.03;;;32.62;30.39
80149;BME280;69473;42.426;26.644;2023-06-22T09:14:28;99251.09;;;32.84;30.69
80149;BME280;69473;42.426;26.644;2023-06-22T09:16:54;99254.19;;;32.89;31.25
80149;BME280;69473;42.426;26.644;2023-06-22T09:19:19;99248.00;;;32.99;29.06
80149;BME280;69473;42.426;26.644;2023-06-22T09:21:45;99257.31;;;32.85;30.83
80149;BME280;69473;42.426;26.644;2023-06-22T09:24:10;99257.31;;;32.95;29.87
80149;BME280;69473;42.426;26.644;2023-06-22T09:26:36;99260.19;;;33.03;28.69
80149;BME280;69473;42.426;26.644;2023-06-22T09:29:01;99261.88;;;33.04;29.00
80149;BME280;69473;42.426;26.644;2023-06-22T09:31:29;99255.63;;;32.94;29.05
80149;BME280;69473;42.426;26.644;2023-06-22T09:33:55;99256.72;;;32.62;30.14
80149;BME280;69473;42.426;26.644;2023-06-22T09:36:21;99255.72;;;32.63;29.57
80149;BME280;69473;42.426;26.644;2023-06-22T09:38:47;99250.53;;;32.91;30.22
80149;BME280;69473;42.426;26.644;2023-06-22T09:41:13;99248.53;;;32.93;29.51
80149;BME280;69473;42.426;26.644;2023-06-22T09:43:39;99251.66;;;32.78;29.49
80149;BME280;69473;42.426;26.644;2023-06-22T09:46:04;99239.94;;;32.29;29.27
80149;BME280;69473;42.426;26.644;2023-06-22T09:48:30;99236.72;;;31.95;31.31
80149;BME280;69473;42.426;26.644;2023-06-22T09:50:56;99235.69;;;32.17;31.49
80149;BME280;69473;42.426;26.644;2023-06-22T09:53:21;99233.41;;;32.53;30.67
80149;BME280;69473;42.426;26.644;2023-06-22T09:55:47;99236.22;;;32.61;28.91
80149;BME280;69473;42.426;26.644;2023-06-22T09:58:13;99238.63;;;32.64;30.07
80149;BME280;69473;42.426;26.644;2023-06-22T10:00:38;99235.41;;;32.70;29.84
80149;BME280;69473;42.426;26.644;2023-06-22T10:03:04;99225.09;;;32.56;28.74
80149;BME280;69473;42.426;26.644;2023-06-22T10:05:29;99232.41;;;32.54;29.62
80149;BME280;69473;42.426;26.644;2023-06-22T10:07:55;99229.75;;;32.54;29.01
80149;BME280;69473;42.426;26.644;2023-06-22T10:10:20;99235.00;;;32.65;28.43
80149;BME280;69473;42.426;26.644;2023-06-22T10:12:48;99229.91;;;32.81;28.72
80149;BME280;69473;42.426;26.644;2023-06-22T10:15:14;99234.47;;;33.00;28.67
80149;BME280;69473;42.426;26.644;2023-06-22T10:17:40;99230.66;;;33.03;28.02
80149;BME280;69473;42.426;26.644;2023-06-22T10:20:06;99232.44;;;32.73;28.28
80149;BME280;69473;42.426;26.644;2023-06-22T10:22:42;99225.94;;;32.66;29.81
80149;BME280;69473;42.426;26.644;2023-06-22T10:25:09;99225.56;;;32.40;28.39
80149;BME280;69473;42.426;26.644;2023-06-22T10:27:35;99224.38;;;32.54;29.93
80149;BME280;69473;42.426;26.644;2023-06-22T10:30:01;99224.84;;;32.78;28.52
80149;BME280;69473;42.426;26.644;2023-06-22T10:32:26;99214.66;;;32.72;29.51
80149;BME280;69473;42.426;26.644;2023-06-22T10:34:54;99222.28;;;32.86;29.74
80149;BME280;69473;42.426;26.644;2023-06-22T10:37:19;99218.38;;;33.00;30.70
80149;BME280;69473;42.426;26.644;2023-06-22T10:39:45;99227.97;;;33.13;29.26
80149;BME280;69473;42.426;26.644;2023-06-22T10:42:12;99218.78;;;33.25;28.48
80149;BME280;69473;42.426;26.644;2023-06-22T10:44:37;99213.84;;;33.01;28.34
80149;BME280;69473;42.426;26.644;2023-06-22T10:47:04;99202.66;;;32.16;30.21
80149;BME280;69473;42.426;26.644;2023-06-22T10:49:30;99212.03;;;31.91;30.57
80149;BME280;69473;42.426;26.644;2023-06-22T10:51:55;99209.84;;;31.85;30.36
80149;BME280;69473;42.426;26.644;2023-06-22T10:54:21;99205.75;;;31.81;30.23
80149;BME280;69473;42.426;26.644;2023-06-22T10:56:46;99204.03;;;31.80;29.96
80149;BME280;69473;42.426;26.644;2023-06-22T10:59:12;99205.56;;;31.73;31.24
80149;BME280;69473;42.426;26.644;2023-06-22T11:01:37;99209.00;;;31.85;30.91
80149;BME280;69473;42.426;26.644;2023-06-22T11:04:03;99206.69;;;31.91;30.15
80149;BME280;69473;42.426;26.644;2023-06-22T11:06:29;99211.78;;;32.45;30.28
80149;BME280;69473;42.426;26.644;2023-06-22T11:08:55;99207.28;;;32.64;30.10
80149;BME280;69473;42.426;26.644;2023-06-22T11:11:20;99202.81;;;32.75;29.61
80149;BME280;69473;42.426;26.644;2023-06-22T11:13:46;99209.59;;;33.08;29.46
80149;BME280;69473;42.426;26.644;2023-06-22T11:16:11;99201.34;;;33.39;28.50
80149;BME280;69473;42.426;26.644;2023-06-22T11:18:37;99200.47;;;33.48;28.87
80149;BME280;69473;42.426;26.644;2023-06-22T11:21:02;99200.28;;;33.12;29.74
80149;BME280;69473;42.426;26.644;2023-06-22T11:23:28;99195.44;;;32.57;30.04
80149;BME280;69473;42.426;26.644;2023-06-22T11:25:54;99194.53;;;32.37;29.20
80149;BME280;69473;42.426;26.644;2023-06-22T11:28:20;99198.75;;;32.40;30.09
80149;BME280;69473;42.426;26.644;2023-06-22T11:30:46;99198.84;;;32.69;29.48
80149;BME280;69473;42.426;26.644;2023-06-22T11:33:11;99199.56;;;32.71;29.80
80149;BME280;69473;42.426;26.644;2023-06-22T11:35:37;99203.66;;;32.75;29.82
80149;BME280;69473;42.426;26.644;2023-06-22T11:38:02;99201.09;;;32.64;29.80
80149;BME280;69473;42.426;26.644;2023-06-22T11:40:29;99196.88;;;32.71;29.89
80149;BME280;69473;42.426;26.644;2023-06-22T11:42:55;99188.91;;;32.40;29.86
80149;BME280;69473;42.426;26.644;2023-06-22T11:45:20;99189.94;;;32.59;29.67
80149;BME280;69473;42.426;26.644;2023-06-22T11:47:46;99177.38;;;32.50;29.80
80149;BME280;69473;42.426;26.644;2023-06-22T11:50:12;99191.97;;;32.26;29.08
80149;BME280;69473;42.426;26.644;2023-06-22T11:52:37;99192.66;;;32.18;30.60
80149;BME280;69473;42.426;26.644;2023-06-22T11:55:04;99194.81;;;31.63;29.79
80149;BME280;69473;42.426;26.644;2023-06-22T11:57:34;99202.47;;;31.78;30.85
80149;BME280;69473;42.426;26.644;2023-06-22T12:00:00;99193.09;;;32.24;30.90
80149;BME280;69473;42.426;26.644;2023-06-22T12:02:25;99191.63;;;32.00;30.70
80149;BME280;69473;42.426;26.644;2023-06-22T12:04:51;99191.06;;;32.06;30.87
80149;BME280;69473;42.426;26.644;2023-06-22T12:07:18;99190.00;;;32.18;30.44
80149;BME280;69473;42.426;26.644;2023-06-22T12:09:43;99190.88;;;32.38;30.39
80149;BME280;69473;42.426;26.644;2023-06-22T12:12:09;99193.94;;;32.24;30.27
80149;BME280;69473;42.426;26.644;2023-06-22T12:14:35;99192.03;;;32.46;29.46
80149;BME280;69473;42.426;26.644;2023-06-22T12:17:01;99186.31;;;32.29;29.92
80149;BME280;69473;42.426;26.644;2023-06-22T12:19:26;99189.44;;;32.34;30.58
80149;BME280;69473;42.426;26.644;2023-06-22T12:21:52;99182.03;;;32.48;29.58
80149;BME280;69473;42.426;26.644;2023-06-22T12:24:18;99182.47;;;31.72;30.11
80149;BME280;69473;42.426;26.644;2023-06-22T12:26:44;99188.09;;;32.00;30.57
80149;BME280;69473;42.426;26.644;2023-06-22T12:29:09;99180.88;;;31.90;29.61
80149;BME280;69473;42.426;26.644;2023-06-22T12:31:36;99184.88;;;32.06;28.85
80149;BME280;69473;42.426;26.644;2023-06-22T12:34:04;99188.25;;;32.08;29.48
80149;BME280;69473;42.426;26.644;2023-06-22T12:36:29;99184.81;;;31.65;30.56
80149;BME280;69473;42.426;26.644;2023-06-22T12:38:55;99170.94;;;31.81;29.12
80149;BME280;69473;42.426;26.644;2023-06-22T12:41:20;99174.63;;;31.90;29.82
80149;BME280;69473;42.426;26.644;2023-06-22T12:43:46;99176.94;;;31.94;29.56
80149;BME280;69473;42.426;26.644;2023-06-22T12:46:12;99173.56;;;32.12;29.22
80149;BME280;69473;42.426;26.644;2023-06-22T12:48:37;99180.09;;;32.19;29.04
80149;BME280;69473;42.426;26.644;2023-06-22T12:51:07;99175.28;;;32.13;29.42